Time;durP1;ratioP1;P1;durP2;ratioP2;P2;SDS_P1;SDS_P2;PMS_P1;PMS_P2;Temp;Humidity;BMP_temperature;BMP_pressure;BME280_temperature;BME280_humidity;BME280_pressure;Samples;Min_cycle;Max_cycle;Signal;HPM_P1;HPM_P2
2022/01/27 06:12:45;;;;;;;16.40;5.68;;;;;;;0.74;78.42;100578.38;5005766;28;106018;-67
2022/01/27 06:15:10;;;;;;;8.20;4.78;;;;;;;0.77;79.09;100570.28;5009045;28;105986;-70
2022/01/27 06:17:35;;;;;;;12.35;4.55;;;;;;;0.81;79.29;100561.28;5010184;28;105954;-70
2022/01/27 06:20:02;;;;;;;14.70;5.65;;;;;;;0.88;79.21;100572.25;5015269;28;105935;-67
2022/01/27 06:22:27;;;;;;;14.07;6.10;;;;;;;0.95;79.05;100570.06;5012804;28;106148;-70
2022/01/27 06:24:52;;;;;;;8.88;4.15;;;;;;;1.01;79.43;100572.28;5015555;27;106045;-68
2022/01/27 06:27:18;;;;;;;14.35;5.57;;;;;;;1.08;79.58;100568.34;5012705;28;107328;-69
2022/01/27 06:29:43;;;;;;;18.92;7.30;;;;;;;1.12;79.38;100567.19;5004954;28;106007;-68
2022/01/27 06:32:09;;;;;;;13.98;6.43;;;;;;;1.16;79.33;100562.56;5004477;28;106268;-70
2022/01/27 06:34:34;;;;;;;11.40;5.72;;;;;;;1.17;78.84;100556.38;5004964;28;106000;-68
2022/01/27 06:37:00;;;;;;;15.45;7.43;;;;;;;1.21;78.92;100562.28;5004907;28;106290;-68
2022/01/27 06:39:25;;;;;;;10.90;4.78;;;;;;;1.22;79.07;100556.94;5004482;28;106118;-68
2022/01/27 06:41:50;;;;;;;12.65;5.47;;;;;;;1.20;78.62;100550.94;5004348;28;110769;-68
2022/01/27 06:44:16;;;;;;;14.30;6.53;;;;;;;1.22;78.75;100559.56;5005181;28;105880;-68
2022/01/27 06:46:41;;;;;;;26.15;10.57;;;;;;;1.23;78.55;100556.00;5004641;28;105833;-68
2022/01/27 06:49:07;;;;;;;37.47;13.63;;;;;;;1.25;78.71;100563.75;5002840;28;105972;-68
2022/01/27 06:51:33;;;;;;;35.38;13.55;;;;;;;1.25;78.29;100551.47;5002332;28;107082;-68
2022/01/27 06:53:59;;;;;;;20.48;7.75;;;;;;;1.25;78.28;100548.00;5003792;28;105829;-68
2022/01/27 06:56:27;;;;;;;10.10;5.10;;;;;;;1.28;78.21;100553.06;5004866;28;105924;-70
2022/01/27 06:58:53;;;;;;;14.43;5.97;;;;;;;1.30;78.37;100549.38;5004165;28;105878;-70
2022/01/27 07:01:19;;;;;;;13.32;7.20;;;;;;;1.30;78.09;100541.50;5003966;28;105946;-67
2022/01/27 07:03:45;;;;;;;21.23;9.68;;;;;;;1.28;77.58;100542.56;4986458;28;105938;-67
2022/01/27 07:06:12;;;;;;;19.27;8.73;;;;;;;1.27;77.78;100546.97;4984188;28;106138;-68
2022/01/27 07:08:37;;;;;;;14.07;6.57;;;;;;;1.31;77.93;100553.69;4983544;28;105817;-67
2022/01/27 07:11:03;;;;;;;11.95;5.63;;;;;;;1.34;77.97;100548.25;4983057;28;106009;-67
2022/01/27 07:13:28;;;;;;;12.25;6.93;;;;;;;1.40;77.67;100540.91;4984245;28;106522;-67
2022/01/27 07:15:55;;;;;;;14.70;6.00;;;;;;;1.41;77.51;100524.19;4983449;28;106102;-67
2022/01/27 07:18:20;;;;;;;11.90;5.95;;;;;;;1.46;77.76;100527.34;4988383;28;106084;-68
2022/01/27 07:20:46;;;;;;;12.32;7.20;;;;;;;1.47;77.56;100521.16;4993037;28;108714;-68
2022/01/27 07:23:11;;;;;;;16.05;8.23;;;;;;;1.49;77.17;100508.75;4984780;28;106138;-69
2022/01/27 07:25:37;;;;;;;12.75;7.03;;;;;;;1.50;77.24;100505.19;4979299;28;106576;-68
2022/01/27 07:28:03;;;;;;;14.18;6.88;;;;;;;1.51;77.27;100504.25;4987670;28;107220;-68
2022/01/27 07:30:28;;;;;;;10.27;6.07;;;;;;;1.53;77.37;100499.72;4990214;28;106015;-69
2022/01/27 07:32:54;;;;;;;11.70;5.93;;;;;;;1.55;77.46;100492.59;4990884;28;105870;-71
2022/01/27 07:35:19;;;;;;;13.60;6.40;;;;;;;1.58;76.99;100491.56;4989851;28;106573;-72
2022/01/27 07:37:46;;;;;;;12.68;6.22;;;;;;;1.61;76.95;100507.09;4987669;28;107907;-72
2022/01/27 07:40:11;;;;;;;13.20;7.10;;;;;;;1.61;76.82;100502.69;4989969;28;106028;-71
2022/01/27 07:42:37;;;;;;;11.63;6.22;;;;;;;1.64;76.92;100494.59;4991011;28;106040;-71
2022/01/27 07:45:04;;;;;;;14.23;6.50;;;;;;;1.69;76.79;100500.41;4990433;28;106111;-75
2022/01/27 07:47:29;;;;;;;11.05;6.13;;;;;;;1.71;76.47;100494.19;4989861;28;105930;-72
2022/01/27 07:49:54;;;;;;;17.15;7.75;;;;;;;1.69;76.29;100486.41;4984044;28;105875;-71
2022/01/27 07:52:20;;;;;;;12.10;5.95;;;;;;;1.66;76.32;100484.00;4981381;28;105881;-70
2022/01/27 07:54:46;;;;;;;16.23;8.13;;;;;;;1.62;76.12;100472.84;4978353;28;106320;-76
2022/01/27 07:57:12;;;;;;;14.23;7.68;;;;;;;1.62;76.16;100464.97;4980625;28;106607;-71
2022/01/27 07:59:38;;;;;;;20.25;7.70;;;;;;;1.61;76.12;100468.53;4980371;28;106044;-71
2022/01/27 08:02:03;;;;;;;14.23;8.20;;;;;;;1.62;76.52;100464.97;4977712;28;106037;-74
2022/01/27 08:04:29;;;;;;;16.13;7.63;;;;;;;1.58;76.17;100460.03;4979740;28;106091;-73
2022/01/27 08:06:54;;;;;;;13.80;7.35;;;;;;;1.54;76.06;100464.66;4980287;28;107852;-72
2022/01/27 08:09:19;;;;;;;16.50;7.80;;;;;;;1.50;76.09;100465.81;4977110;28;107073;-70
2022/01/27 08:11:45;;;;;;;15.20;8.00;;;;;;;1.45;75.76;100465.28;4973523;28;106596;-69
2022/01/27 08:14:12;;;;;;;16.67;7.72;;;;;;;1.40;75.75;100467.41;4975470;28;106178;-70
2022/01/27 08:16:37;;;;;;;17.05;7.80;;;;;;;1.40;75.69;100472.66;4976180;28;106046;-69
2022/01/27 08:19:03;;;;;;;12.98;6.07;;;;;;;1.42;76.19;100473.38;4969397;28;106002;-70
2022/01/27 08:21:28;;;;;;;17.23;8.80;;;;;;;1.44;76.08;100477.59;4970631;28;106075;-70
2022/01/27 08:23:55;;;;;;;13.32;7.78;;;;;;;1.44;75.70;100472.31;4969732;28;106145;-72
2022/01/27 08:26:37;;;;;;;14.98;7.88;;;;;;;1.45;75.37;100454.78;4976101;28;105959;-70
2022/01/27 08:29:12;;;;;;;16.42;8.50;;;;;;;1.48;75.98;100446.72;4977579;28;105948;-72
2022/01/27 08:34:58;;;;;;;20.27;8.48;;;;;;;1.51;75.49;100443.88;4977215;28;106141;-74
2022/01/27 08:37:18;;;;;;;13.63;7.05;;;;;;;1.50;75.78;100442.19;4972910;28;106638;-72
2022/01/27 08:39:46;;;;;;;11.15;7.35;;;;;;;1.52;75.09;100432.44;4978242;28;105968;-73
2022/01/27 08:42:12;;;;;;;16.15;7.78;;;;;;;1.53;75.09;100436.72;4980679;28;105879;-70
2022/01/27 08:44:37;;;;;;;16.10;8.73;;;;;;;1.51;75.34;100433.38;4978579;28;106433;-70
2022/01/27 08:47:04;;;;;;;19.95;10.45;;;;;;;1.55;75.40;100432.22;4978279;28;106012;-72
2022/01/27 08:49:29;;;;;;;18.10;9.38;;;;;;;1.59;75.55;100417.09;4979087;28;106509;-71
2022/01/27 08:51:56;;;;;;;21.30;9.27;;;;;;;1.63;75.44;100416.75;4974277;28;105882;-72
2022/01/27 08:54:22;;;;;;;13.23;6.68;;;;;;;1.70;75.21;100411.91;4969231;28;106253;-70
2022/01/27 08:56:47;;;;;;;17.95;9.13;;;;;;;1.75;74.84;100409.81;4968789;28;106113;-72
2022/01/27 08:59:16;;;;;;;16.05;7.88;;;;;;;1.82;75.05;100407.59;4968803;28;106033;-69
2022/01/27 09:01:42;;;;;;;14.80;7.65;;;;;;;1.82;74.36;100407.59;4969121;28;105991;-70
2022/01/27 09:04:08;;;;;;;18.98;9.13;;;;;;;1.83;74.60;100390.88;4968702;28;106194;-71
2022/01/27 09:06:34;;;;;;;21.42;10.13;;;;;;;1.90;74.80;100386.88;4968671;28;106033;-71
2022/01/27 09:09:00;;;;;;;22.98;9.48;;;;;;;2.07;74.68;100385.66;4969289;28;106193;-72
2022/01/27 09:11:28;;;;;;;17.13;8.98;;;;;;;2.23;73.86;100381.91;4974007;28;106197;-71
2022/01/27 09:13:55;;;;;;;18.40;9.43;;;;;;;2.29;73.85;100390.19;4974690;28;105865;-72
2022/01/27 09:16:26;;;;;;;21.90;10.00;;;;;;;2.35;73.63;100381.88;4970916;28;106627;-71
2022/01/27 09:18:51;;;;;;;22.05;8.85;;;;;;;2.42;73.85;100378.78;4967835;28;106111;-72
2022/01/27 09:21:22;;;;;;;17.90;8.68;;;;;;;2.52;73.49;100377.97;4968814;28;106009;-73
2022/01/27 09:23:49;;;;;;;18.02;9.05;;;;;;;2.60;73.19;100382.69;4968566;28;106064;-71
2022/01/27 09:28:59;;;;;;;21.50;9.55;;;;;;;2.75;73.19;100371.97;4968338;28;106028;-71
2022/01/27 09:31:25;;;;;;;13.27;7.15;;;;;;;2.76;72.73;100385.03;4969374;28;105991;-71
2022/01/27 09:33:51;;;;;;;14.52;7.60;;;;;;;2.70;72.10;100365.25;4968914;28;106209;-71
2022/01/27 09:36:16;;;;;;;14.85;7.05;;;;;;;2.60;71.53;100364.28;4968868;28;105988;-71
2022/01/27 09:38:42;;;;;;;22.60;9.38;;;;;;;2.52;72.15;100361.38;4968693;28;106063;-71
2022/01/27 09:41:10;;;;;;;17.38;8.70;;;;;;;2.54;72.19;100344.53;4968883;28;105895;-71
2022/01/27 09:43:36;;;;;;;15.15;6.53;;;;;;;2.54;71.79;100355.06;4969015;28;105873;-71
2022/01/27 09:46:06;;;;;;;13.27;6.63;;;;;;;2.55;72.06;100340.09;4968334;28;105959;-73
2022/01/27 09:48:37;;;;;;;19.48;8.02;;;;;;;2.55;71.49;100332.22;4966107;28;105984;-72
2022/01/27 09:53:50;;;;;;;18.05;9.05;;;;;;;2.60;71.85;100319.56;4966192;28;105990;-72
2022/01/27 09:56:17;;;;;;;16.88;8.98;;;;;;;2.64;72.02;100315.75;4968330;28;106016;-71
2022/01/27 09:58:43;;;;;;;19.50;8.75;;;;;;;2.65;71.74;100309.53;4968718;28;105950;-71
2022/01/27 10:01:08;;;;;;;22.95;9.77;;;;;;;2.68;71.54;100311.09;4969392;28;105936;-72
2022/01/27 10:03:51;;;;;;;21.85;10.65;;;;;;;2.69;71.63;100295.19;4968602;28;107125;-71
2022/01/27 10:06:18;;;;;;;18.50;8.77;;;;;;;2.66;70.91;100300.66;4967801;28;106235;-71
2022/01/27 10:08:44;;;;;;;22.67;9.38;;;;;;;2.59;71.01;100306.53;4968620;28;106268;-72
2022/01/27 10:11:14;;;;;;;19.65;9.77;;;;;;;2.56;71.37;100294.44;4968661;28;105926;-71
2022/01/27 10:13:43;;;;;;;21.67;9.40;;;;;;;2.55;71.37;100305.91;4968536;28;106203;-72
2022/01/27 10:16:26;;;;;;;25.83;10.65;;;;;;;2.53;70.82;100297.31;4967632;28;106005;-72
2022/01/27 10:19:04;;;;;;;19.25;8.30;;;;;;;2.51;71.27;100305.28;4967583;28;105984;-71
2022/01/27 10:21:34;;;;;;;19.52;9.65;;;;;;;2.51;71.26;100296.56;4968962;28;105663;-70
2022/01/27 10:24:25;;;;;;;23.40;9.65;;;;;;;2.51;71.09;100286.88;4968274;28;106225;-70
2022/01/27 10:27:18;;;;;;;16.58;8.23;;;;;;;2.53;71.38;100285.00;4967499;28;105994;-70
2022/01/27 10:30:35;;;;;;;21.17;8.23;;;;;;;2.54;71.26;100270.03;4967441;28;105940;-71
2022/01/27 10:32:48;;;;;;;18.17;8.67;;;;;;;2.56;71.06;100273.41;4967468;28;106245;-71
2022/01/27 10:35:15;;;;;;;;;;;;;;;2.57;70.97;100269.84;4968274;28;106143;-71
2022/01/27 10:37:59;;;;;;;14.75;6.80;;;;;;;2.58;70.95;100265.41;4967748;28;106478;-71
2022/01/27 10:40:34;;;;;;;19.30;8.23;;;;;;;2.60;70.71;100252.94;4967733;28;105820;-72
2022/01/27 10:43:13;;;;;;;15.68;8.38;;;;;;;2.64;70.43;100247.34;4967998;28;106441;-71
2022/01/27 10:46:13;;;;;;;19.33;8.63;;;;;;;2.65;70.00;100251.66;4967623;28;106298;-72
2022/01/27 10:48:48;;;;;;;17.13;8.00;;;;;;;2.67;70.41;100238.41;4967511;28;105843;-74
2022/01/27 10:51:54;;;;;;;17.17;8.10;;;;;;;2.68;70.19;100232.19;4967342;28;106045;-72
2022/01/27 10:54:22;;;;;;;13.95;6.65;;;;;;;2.68;70.03;100235.66;4965749;28;106216;-73
2022/01/27 10:56:48;;;;;;;19.40;8.73;;;;;;;2.67;70.64;100223.44;4967613;28;106062;-71
2022/01/27 10:59:19;;;;;;;21.33;10.48;;;;;;;2.71;70.36;100224.88;4970200;28;106104;-71
2022/01/27 11:01:50;;;;;;;21.17;8.95;;;;;;;2.69;70.54;100221.53;4968790;28;106098;-70
2022/01/27 11:04:18;;;;;;;23.70;9.15;;;;;;;2.72;70.18;100209.94;4971298;28;105978;-72
2022/01/27 11:07:02;;;;;;;18.50;9.35;;;;;;;2.75;70.48;100212.34;4970985;28;106124;-72
2022/01/27 11:09:33;;;;;;;23.27;10.60;;;;;;;2.80;70.66;100211.97;4970313;28;105884;-73
2022/01/27 11:11:59;;;;;;;19.88;9.00;;;;;;;2.84;70.52;100202.88;4970045;28;106507;-70
2022/01/27 11:14:26;;;;;;;20.60;10.35;;;;;;;2.84;70.60;100208.13;4970996;28;106335;-70
2022/01/27 11:16:56;;;;;;;18.80;8.65;;;;;;;2.87;70.69;100194.72;4970314;28;106184;-69
2022/01/27 11:22:06;;;;;;;12.55;7.38;;;;;;;2.80;70.13;100193.53;4967001;28;106003;-70
2022/01/27 11:25:06;;;;;;;23.08;10.75;;;;;;;2.64;70.10;100192.13;4971048;28;106484;-70
2022/01/27 11:27:24;;;;;;;15.75;7.63;;;;;;;2.51;70.39;100191.38;4969663;28;106050;-72
2022/01/27 11:30:01;;;;;;;14.82;7.55;;;;;;;2.40;70.86;100194.84;4969806;28;106263;-73
2022/01/27 11:32:32;;;;;;;17.70;9.15;;;;;;;2.30;71.63;100178.94;4970124;28;105971;-72
2022/01/27 11:34:57;;;;;;;21.98;11.75;;;;;;;2.27;72.07;100168.66;4971125;28;106042;-71
2022/01/27 11:37:31;;;;;;;20.02;10.68;;;;;;;2.27;72.17;100165.19;4970308;28;106380;-72
2022/01/27 11:40:02;;;;;;;22.25;10.63;;;;;;;2.29;72.33;100166.75;4969603;28;105935;-71
2022/01/27 11:42:34;;;;;;;17.27;7.55;;;;;;;2.28;72.64;100151.91;4970091;28;105999;-70
2022/01/27 11:45:34;;;;;;;24.65;11.10;;;;;;;2.25;72.34;100148.69;4970806;28;106188;-71
2022/01/27 11:48:10;;;;;;;17.83;8.65;;;;;;;2.23;72.60;100137.44;4968309;28;106253;-70
2022/01/27 11:50:49;;;;;;;24.88;9.15;;;;;;;2.20;72.85;100126.22;4969903;28;106334;-71
2022/01/27 11:53:32;;;;;;;26.73;11.30;;;;;;;2.20;72.71;100136.75;4969784;28;106161;-71
2022/01/27 11:56:31;;;;;;;35.60;14.57;;;;;;;2.20;73.16;100139.38;4969747;28;105999;-72
2022/01/27 11:59:02;;;;;;;23.80;12.88;;;;;;;2.20;72.85;100146.41;4969270;28;105994;-71
2022/01/27 12:01:29;;;;;;;23.45;10.77;;;;;;;2.18;73.35;100140.44;4967521;28;107613;-71
2022/01/27 12:04:07;;;;;;;39.70;17.20;;;;;;;2.16;73.15;100131.81;4969342;28;106601;-70
2022/01/27 12:06:34;;;;;;;38.10;15.90;;;;;;;2.18;73.70;100127.31;4970094;28;106139;-70
2022/01/27 12:09:20;;;;;;;26.30;9.63;;;;;;;2.21;74.01;100116.53;4969416;28;106244;-70
2022/01/27 12:11:51;;;;;;;27.88;12.77;;;;;;;2.16;73.32;100110.78;4968790;28;107247;-69
2022/01/27 12:14:23;;;;;;;27.00;12.57;;;;;;;2.14;73.85;100124.06;4969059;28;105859;-69
2022/01/27 12:17:22;;;;;;;27.85;12.68;;;;;;;2.16;74.06;100121.31;4970084;28;105862;-69
2022/01/27 12:20:08;;;;;;;27.50;13.23;;;;;;;2.17;73.95;100117.75;4926271;28;105982;-69
2022/01/27 12:22:44;;;;;;;25.35;12.43;;;;;;;2.17;73.99;100110.72;4969301;28;106292;-71
2022/01/27 12:25:12;;;;;;;21.55;9.43;;;;;;;2.17;74.22;100115.97;4968759;28;106062;-71
2022/01/27 12:27:39;;;;;;;24.33;11.13;;;;;;;2.12;74.14;100091.81;4969671;28;105903;-69
2022/01/27 12:30:10;;;;;;;23.02;9.52;;;;;;;2.12;74.44;100075.19;4970035;28;106298;-71
2022/01/27 12:32:35;;;;;;;;;;;;;;;2.07;74.60;100080.00;4978408;28;106218;-71
2022/01/27 12:35:08;;;;;;;27.13;7.50;;;;;;;2.00;74.76;100080.44;4978015;28;106722;-72
2022/01/27 12:37:38;;;;;;;22.48;10.45;;;;;;;1.96;75.07;100075.56;4976454;28;106501;-71
2022/01/27 12:40:07;;;;;;;19.88;10.48;;;;;;;1.94;75.26;100070.44;4966626;28;106018;-71
2022/01/27 12:42:38;;;;;;;26.75;11.82;;;;;;;1.92;75.31;100064.44;4968368;28;105961;-73
2022/01/27 12:45:13;;;;;;;23.30;10.75;;;;;;;1.93;75.36;100060.88;4964703;28;106186;-71
2022/01/27 12:47:44;;;;;;;24.85;11.02;;;;;;;1.92;75.41;100063.63;4968724;28;105746;-70
2022/01/27 12:50:12;;;;;;;22.52;12.25;;;;;;;1.93;75.75;100055.59;4968706;28;105901;-71
2022/01/27 12:52:42;;;;;;;23.65;11.95;;;;;;;1.95;75.73;100050.25;4968613;28;105931;-71
2022/01/27 12:55:15;;;;;;;24.70;12.10;;;;;;;1.99;75.68;100047.25;4968355;28;106642;-70
2022/01/27 12:57:41;;;;;;;26.00;11.52;;;;;;;2.01;75.80;100041.91;4966516;28;105935;-71
2022/01/27 13:00:12;;;;;;;30.70;13.95;;;;;;;2.02;75.97;100038.28;4968719;28;106102;-71
2022/01/27 13:02:38;;;;;;;20.48;10.45;;;;;;;2.00;75.97;100034.97;4968289;28;106051;-70
2022/01/27 13:05:05;;;;;;;24.83;12.15;;;;;;;2.00;76.21;100042.84;4968239;28;106070;-70
2022/01/27 13:07:35;;;;;;;14.80;7.35;;;;;;;1.99;76.01;100044.63;4951583;28;106067;-73
2022/01/27 13:10:06;;;;;;;17.20;8.90;;;;;;;1.98;76.27;100047.38;4966694;28;106297;-69
2022/01/27 13:12:39;;;;;;;14.85;8.15;;;;;;;1.92;76.39;100042.59;4967073;28;107648;-69
2022/01/27 13:15:10;;;;;;;21.27;11.32;;;;;;;1.85;76.43;100035.19;4967137;28;106017;-69
2022/01/27 13:17:51;;;;;;;20.35;10.25;;;;;;;1.84;76.53;100038.75;4967679;28;106079;-69
2022/01/27 13:20:35;;;;;;;19.40;9.73;;;;;;;1.77;76.23;100040.19;4966728;28;106023;-69
2022/01/27 13:23:13;;;;;;;19.20;10.27;;;;;;;1.73;76.79;100035.28;4964809;28;107775;-69
2022/01/27 13:25:44;;;;;;;21.83;9.95;;;;;;;1.71;76.67;100030.16;4966678;28;106182;-72
2022/01/27 13:28:21;;;;;;;20.15;10.93;;;;;;;1.70;76.40;100028.47;4965775;28;106612;-70
2022/01/27 13:30:50;;;;;;;24.25;11.13;;;;;;;1.69;76.90;100021.53;4960788;28;106272;-70
2022/01/27 13:33:18;;;;;;;23.63;11.45;;;;;;;1.69;76.93;100032.91;4966347;28;107161;-71
2022/01/27 13:35:44;;;;;;;26.52;12.32;;;;;;;1.66;77.03;100027.88;4966708;28;105988;-70
2022/01/27 13:43:40;;;;;;;17.85;8.55;;;;;;;1.72;77.62;100033.59;4966124;28;107029;-71
2022/01/27 13:46:07;;;;;;;17.05;8.50;;;;;;;1.78;77.79;100035.78;4967126;28;105912;-70
2022/01/27 13:48:45;;;;;;;16.63;9.85;;;;;;;1.76;77.39;100021.91;4967292;28;106118;-69
2022/01/27 13:51:22;;;;;;;24.50;11.52;;;;;;;1.75;77.36;100028.13;4966525;28;106136;-69
2022/01/27 13:54:05;;;;;;;24.50;13.13;;;;;;;1.72;77.65;100030.97;4963533;28;106292;-69
2022/01/27 13:56:45;;;;;;;24.08;11.50;;;;;;;1.69;77.38;100026.78;4963351;28;106558;-68
2022/01/27 13:59:15;;;;;;;25.65;11.32;;;;;;;1.68;77.75;100031.22;4964762;28;105994;-68
2022/01/27 16:51:01;;;;;;;9.23;4.03;;;;;;;2.71;79.65;99932.06;4984817;28;106181;-71
2022/01/27 16:53:27;;;;;;;4.95;2.35;;;;;;;2.76;79.77;99929.03;4984328;28;105982;-73
2022/01/27 16:55:52;;;;;;;9.20;4.32;;;;;;;2.83;79.60;99956.50;4983292;28;106257;-75
2022/01/27 16:58:18;;;;;;;9.52;4.25;;;;;;;2.90;79.92;99928.75;4981404;28;106188;-74
2022/01/27 17:00:43;;;;;;;7.38;4.30;;;;;;;2.99;79.99;99932.41;4977665;28;106211;-71
2022/01/27 17:03:10;;;;;;;5.20;3.22;;;;;;;3.07;80.34;99939.69;4966037;28;106057;-70
2022/01/27 17:05:36;;;;;;;8.90;4.13;;;;;;;3.13;79.65;99913.69;4964469;28;106444;-71
2022/01/27 17:08:02;;;;;;;10.00;5.10;;;;;;;3.20;79.92;99927.16;4963256;28;106103;-69
2022/01/27 17:10:28;;;;;;;5.20;3.42;;;;;;;3.27;79.83;99924.81;4961865;28;106084;-72
2022/01/27 17:12:54;;;;;;;7.22;4.65;;;;;;;3.31;79.18;99927.09;4963227;28;106065;-69
2022/01/27 17:15:19;;;;;;;5.20;3.22;;;;;;;3.36;79.53;99918.78;4964734;28;106302;-73
2022/01/27 17:17:46;;;;;;;8.45;4.82;;;;;;;3.39;79.51;99924.63;4963754;28;106656;-73
2022/01/27 17:20:13;;;;;;;7.50;4.10;;;;;;;3.43;78.91;99908.56;4961314;28;108056;-73
2022/01/27 17:22:40;;;;;;;7.63;4.45;;;;;;;3.44;78.69;99913.69;4962068;28;106122;-69
2022/01/27 17:25:07;;;;;;;11.02;5.78;;;;;;;3.46;78.61;99916.19;4948958;28;106514;-75
2022/01/27 17:27:34;;;;;;;4.32;2.90;;;;;;;3.49;78.50;99914.13;4944661;28;106072;-73
2022/01/27 17:30:01;;;;;;;8.32;4.78;;;;;;;3.52;78.66;99907.78;4948359;28;106200;-71
2022/01/27 17:32:27;;;;;;;7.32;3.55;;;;;;;3.53;78.34;99920.00;4963791;28;106063;-72
2022/01/27 17:34:54;;;;;;;9.13;4.43;;;;;;;3.55;78.30;99908.38;4956670;28;106059;-74
2022/01/27 17:37:20;;;;;;;9.00;5.32;;;;;;;3.54;78.44;99919.00;4958763;28;107173;-73
2022/01/27 17:39:46;;;;;;;11.10;5.00;;;;;;;3.58;78.43;99916.94;4964286;28;105968;-71
2022/01/27 17:42:12;;;;;;;9.23;5.25;;;;;;;3.59;78.50;99893.09;4963882;28;106830;-69
2022/01/27 17:44:45;;;;;;;6.22;3.38;;;;;;;3.62;78.40;99892.84;4959250;28;106537;-70
2022/01/27 17:47:10;;;;;;;8.13;4.95;;;;;;;3.65;77.94;99918.09;4954591;28;106021;-72
2022/01/27 17:49:36;;;;;;;8.30;4.65;;;;;;;3.65;77.68;99918.09;4951260;28;106033;-71
2022/01/27 17:52:02;;;;;;;12.07;4.85;;;;;;;3.66;78.10;99917.97;4963413;28;106337;-71
2022/01/27 17:54:28;;;;;;;11.93;6.45;;;;;;;3.69;78.01;99920.34;4961389;28;105894;-72
2022/01/27 17:56:54;;;;;;;14.93;6.70;;;;;;;3.71;77.70;99909.66;4964584;28;105970;-71
2022/01/27 17:59:19;;;;;;;16.00;7.50;;;;;;;3.71;77.61;99909.66;4964131;28;106654;-77
2022/01/27 18:01:45;;;;;;;13.32;6.13;;;;;;;3.72;77.56;99904.25;4956341;28;106140;-71
2022/01/27 18:04:10;;;;;;;12.02;6.80;;;;;;;3.72;77.87;99903.44;4951667;28;106326;-72
2022/01/27 18:06:36;;;;;;;9.68;5.03;;;;;;;3.72;77.66;99920.06;4950396;28;106539;-71
2022/01/27 18:09:04;;;;;;;8.93;4.97;;;;;;;3.76;77.78;99914.53;4949446;28;105838;-73
2022/01/27 18:11:31;;;;;;;6.22;3.90;;;;;;;3.77;77.72;99900.38;4941252;28;106277;-74
2022/01/27 18:14:03;;;;;;;6.65;4.50;;;;;;;3.78;77.45;99907.34;4939453;28;106325;-70
2022/01/27 18:16:29;;;;;;;7.43;3.70;;;;;;;3.78;77.67;99908.16;4940016;28;105875;-70
2022/01/27 18:18:57;;;;;;;8.70;4.65;;;;;;;3.77;77.45;99905.66;4947661;28;106189;-71
2022/01/27 18:21:23;;;;;;;7.75;4.47;;;;;;;3.76;77.50;99898.72;4951437;28;105938;-74
2022/01/27 18:23:48;;;;;;;6.20;3.35;;;;;;;3.76;77.39;99891.66;4951154;28;105958;-72
2022/01/27 18:26:14;;;;;;;5.57;3.13;;;;;;;3.77;77.62;99890.66;4950184;28;106046;-71
2022/01/27 18:28:42;;;;;;;4.60;2.50;;;;;;;3.80;77.60;99882.53;4949310;28;106350;-69
2022/01/27 18:31:08;;;;;;;8.80;4.15;;;;;;;3.81;77.44;99880.72;4950975;28;106080;-71
2022/01/27 18:33:34;;;;;;;8.63;4.28;;;;;;;3.81;77.37;99881.53;4949778;28;106122;-73
2022/01/27 18:36:00;;;;;;;8.20;3.67;;;;;;;3.82;77.58;99883.22;4948828;28;106301;-72
2022/01/27 18:38:26;;;;;;;5.28;3.67;;;;;;;3.85;77.70;99879.47;4948679;28;106423;-72
2022/01/27 18:40:51;;;;;;;6.15;4.00;;;;;;;3.87;77.59;99873.09;4932120;28;106149;-72
2022/01/27 18:43:17;;;;;;;5.95;3.38;;;;;;;3.88;77.33;99873.94;4941151;28;106461;-73
2022/01/27 18:45:44;;;;;;;7.70;3.70;;;;;;;3.86;77.56;99863.53;4950982;28;106479;-73
2022/01/27 18:48:11;;;;;;;8.02;4.63;;;;;;;3.83;77.38;99847.16;4950626;28;106032;-74
2022/01/27 18:50:39;;;;;;;8.18;3.35;;;;;;;3.82;77.36;99841.03;4940680;28;105952;-72
2022/01/27 18:53:04;;;;;;;15.55;3.85;;;;;;;3.82;77.42;99841.03;4930203;28;106157;-74
2022/01/27 18:55:30;;;;;;;12.63;6.38;;;;;;;3.82;77.20;99841.03;4929935;28;106518;-71
2022/01/27 18:57:55;;;;;;;9.40;4.53;;;;;;;3.80;77.41;99848.28;4929668;28;106061;-74
2022/01/27 19:00:21;;;;;;;8.18;4.93;;;;;;;3.81;77.17;99851.72;4930260;28;106009;-72
2022/01/27 19:02:47;;;;;;;8.80;4.05;;;;;;;3.81;77.35;99843.81;4929294;28;106363;-72
2022/01/27 19:05:13;;;;;;;8.02;4.65;;;;;;;3.84;77.47;99848.81;4961147;28;106667;-72
2022/01/27 19:07:38;;;;;;;11.70;5.78;;;;;;;3.84;77.52;99843.53;4929276;28;106069;-72
2022/01/27 19:10:05;;;;;;;8.38;4.88;;;;;;;3.87;77.30;99848.56;4929984;28;106090;-72
2022/01/27 19:12:30;;;;;;;6.68;3.42;;;;;;;3.87;77.28;99838.84;4928751;28;106015;-73
2022/01/27 19:14:55;;;;;;;8.13;5.03;;;;;;;3.89;77.27;99838.72;4928911;28;106030;-72
2022/01/27 19:17:21;;;;;;;7.68;4.60;;;;;;;3.91;77.18;99834.16;4929178;28;106088;-71
2022/01/27 19:19:46;;;;;;;6.05;3.80;;;;;;;3.96;77.09;99826.66;4929795;28;106032;-74
2022/01/27 19:22:12;;;;;;;7.75;3.75;;;;;;;3.99;76.98;99829.03;4929519;28;106092;-72
2022/01/27 19:24:38;;;;;;;3.92;2.58;;;;;;;4.01;77.03;99834.16;4927763;28;107684;-72
2022/01/27 19:27:06;;;;;;;10.23;4.93;;;;;;;4.03;76.93;99827.78;4929008;28;106209;-72
2022/01/27 19:29:33;;;;;;;6.82;3.80;;;;;;;4.03;77.10;99827.78;4930181;28;106138;-72
2022/01/27 19:32:04;;;;;;;6.85;3.50;;;;;;;4.03;76.94;99827.78;4929278;28;106201;-71
2022/01/27 19:34:30;;;;;;;9.70;5.20;;;;;;;4.04;76.77;99829.44;4929424;28;106097;-70
2022/01/27 19:36:55;;;;;;;7.57;4.57;;;;;;;4.06;76.95;99803.78;4929547;28;106514;-72
2022/01/27 19:39:21;;;;;;;8.15;4.68;;;;;;;4.09;76.58;99804.47;4929848;28;106047;-74
